createdAt,value
2023-03-13T00:00:46.053Z,1.17
2023-03-13T00:03:28.393Z,1.08
2023-03-13T00:06:00.175Z,1.14
2023-03-13T00:08:37.426Z,1.17
2023-03-13T00:11:15.705Z,1.20
2023-03-13T00:13:55.473Z,1.24
2023-03-13T00:16:32.456Z,1.35
2023-03-13T00:19:10.030Z,1.48
2023-03-13T00:21:46.935Z,1.61
2023-03-13T00:24:24.166Z,1.64
2023-03-13T00:26:56.133Z,1.60
2023-03-13T00:29:33.090Z,1.60
2023-03-13T00:32:09.543Z,1.63
2023-03-13T00:34:46.413Z,1.65
2023-03-13T00:37:23.059Z,1.64
2023-03-13T00:39:53.320Z,1.64
2023-03-13T00:42:25.325Z,1.64
2023-03-13T00:45:02.807Z,1.65
2023-03-13T00:47:32.912Z,1.70
2023-03-13T00:50:10.177Z,1.71
2023-03-13T00:52:47.080Z,1.74
2023-03-13T00:55:23.772Z,1.77
2023-03-13T00:58:00.374Z,1.84
2023-03-13T01:00:37.647Z,1.92
2023-03-13T01:03:15.068Z,1.97
2023-03-13T01:05:59.831Z,2.04
2023-03-13T01:08:36.748Z,2.11
2023-03-13T01:11:16.225Z,2.24
2023-03-13T01:13:55.362Z,2.35
2023-03-13T01:16:32.909Z,2.41
2023-03-13T01:19:15.424Z,2.46
2023-03-13T01:21:52.164Z,2.48
2023-03-13T01:24:28.440Z,2.46
2023-03-13T01:27:22.308Z,2.48
2023-03-13T01:30:00.738Z,2.47
2023-03-13T01:32:38.964Z,2.46
2023-03-13T01:35:11.155Z,2.44
2023-03-13T01:37:49.821Z,2.44
2023-03-13T01:40:26.303Z,2.42
2023-03-13T01:43:01.435Z,2.38
2023-03-13T01:45:59.227Z,2.37
2023-03-13T01:48:50.010Z,2.33
2023-03-13T01:51:30.852Z,2.29
2023-03-13T01:54:19.706Z,2.24
2023-03-13T01:57:03.461Z,2.21
2023-03-13T02:00:11.000Z,2.15
2023-03-13T02:02:55.591Z,2.14
2023-03-13T02:05:32.510Z,2.09
2023-03-13T02:08:27.499Z,2.04
2023-03-13T02:11:30.998Z,1.99
2023-03-13T02:14:09.725Z,1.98
2023-03-13T02:16:49.458Z,1.97
2023-03-13T02:19:35.791Z,1.97
2023-03-13T02:22:34.019Z,2.04
2023-03-13T02:25:27.491Z,2.09
2023-03-13T02:28:19.882Z,2.19
2023-03-13T02:30:56.302Z,2.23
2023-03-13T02:33:40.057Z,2.23
2023-03-13T02:36:17.387Z,2.23
2023-03-13T02:38:57.573Z,2.25
2023-03-13T02:41:34.285Z,2.25
2023-03-13T02:44:10.990Z,2.29
2023-03-13T02:46:52.925Z,2.31
2023-03-13T02:49:30.403Z,2.29
2023-03-13T02:52:33.250Z,2.28
2023-03-13T02:55:33.466Z,2.25
2023-03-13T02:58:10.760Z,2.34
2023-03-13T03:00:47.083Z,2.37
2023-03-13T03:03:24.489Z,2.32
2023-03-13T03:06:01.049Z,2.35
2023-03-13T03:08:41.677Z,2.41
2023-03-13T03:11:18.389Z,2.37
2023-03-13T03:13:55.477Z,2.33
2023-03-13T03:16:32.250Z,2.32
2023-03-13T03:19:11.334Z,2.33
2023-03-13T03:21:49.932Z,2.32
2023-03-13T03:24:26.701Z,2.30
2023-03-13T03:26:56.994Z,2.33
2023-03-13T03:29:33.977Z,2.32
2023-03-13T03:32:11.569Z,2.38
2023-03-13T03:34:48.477Z,2.40
2023-03-13T03:37:24.993Z,2.47
2023-03-13T03:40:01.733Z,2.46
2023-03-13T03:42:38.485Z,2.47
2023-03-13T03:45:16.306Z,2.43
2023-03-13T03:47:52.641Z,2.47
2023-03-13T03:50:32.500Z,2.46
2023-03-13T03:53:10.309Z,2.50
2023-03-13T03:55:47.438Z,2.51
2023-03-13T03:58:17.994Z,2.54
2023-03-13T04:00:54.785Z,2.59
2023-03-13T04:03:31.448Z,2.67
2023-03-13T04:06:07.812Z,2.73
2023-03-13T04:08:44.156Z,2.74
2023-03-13T04:11:21.500Z,2.76
2023-03-13T04:13:58.460Z,2.78
2023-03-13T04:16:34.672Z,2.78
2023-03-13T04:19:11.513Z,2.76
2023-03-13T04:21:48.369Z,2.80
2023-03-13T04:24:18.590Z,2.84
2023-03-13T04:26:55.491Z,2.81
2023-03-13T04:29:31.808Z,2.78
2023-03-13T04:32:03.381Z,2.74
2023-03-13T04:34:39.836Z,2.71
2023-03-13T04:37:16.562Z,2.66
2023-03-13T04:39:52.756Z,2.64
2023-03-13T04:42:30.005Z,2.66
2023-03-13T04:45:00.300Z,2.68
2023-03-13T04:47:36.361Z,2.68
2023-03-13T04:50:07.173Z,2.66
2023-03-13T04:52:44.390Z,2.60
2023-03-13T04:55:21.593Z,2.55
2023-03-13T04:57:58.737Z,2.58
2023-03-13T05:00:35.603Z,2.59
2023-03-13T05:03:12.995Z,2.61
2023-03-13T05:05:49.843Z,2.63
2023-03-13T05:08:21.187Z,2.67
2023-03-13T05:10:51.361Z,2.69
2023-03-13T05:13:28.514Z,2.66
2023-03-13T05:16:04.860Z,2.73
2023-03-13T05:18:41.966Z,2.78
2023-03-13T05:21:19.542Z,2.82
2023-03-13T05:23:56.435Z,2.85
2023-03-13T05:26:33.127Z,2.86
2023-03-13T05:29:03.312Z,2.85
2023-03-13T05:31:38.051Z,2.87
2023-03-13T05:34:17.020Z,2.88
2023-03-13T05:36:54.353Z,2.96
2023-03-13T05:39:33.186Z,2.95
2023-03-13T05:42:11.859Z,3.01
2023-03-13T05:44:49.266Z,2.99
2023-03-13T05:47:19.758Z,3.02
2023-03-13T05:49:58.004Z,3.06
2023-03-13T05:52:35.844Z,3.12
2023-03-13T05:55:09.609Z,3.14
2023-03-13T05:57:40.121Z,3.08
2023-03-13T06:00:18.714Z,3.11
2023-03-13T06:02:56.082Z,3.13
2023-03-13T06:05:33.395Z,3.17
2023-03-13T06:08:11.491Z,3.20
2023-03-13T06:10:50.514Z,3.23
2023-03-13T06:13:28.240Z,3.25
2023-03-13T06:16:05.907Z,3.20
2023-03-13T06:18:43.184Z,3.21
2023-03-13T06:21:20.419Z,3.26
2023-03-13T06:23:58.979Z,3.33
2023-03-13T06:26:35.995Z,3.38
2023-03-13T06:29:14.379Z,3.35
2023-03-13T06:31:44.843Z,3.38
2023-03-13T06:34:20.421Z,3.42
2023-03-13T06:36:59.536Z,3.42
2023-03-13T06:39:29.946Z,3.42
2023-03-13T06:42:08.630Z,3.44
2023-03-13T06:44:45.902Z,3.49
2023-03-13T06:47:23.153Z,3.53
2023-03-13T06:50:01.408Z,3.53
2023-03-13T06:52:43.910Z,3.57
2023-03-13T06:55:24.437Z,3.57
2023-03-13T06:58:02.576Z,3.56
2023-03-13T07:00:42.814Z,3.56
2023-03-13T07:03:20.445Z,3.59
2023-03-13T07:06:01.997Z,3.54
2023-03-13T07:08:37.443Z,3.55
2023-03-13T07:11:16.702Z,3.59
2023-03-13T07:13:47.281Z,3.65
2023-03-13T07:16:22.254Z,3.61
2023-03-13T07:18:58.078Z,3.58
2023-03-13T07:21:35.366Z,3.58
2023-03-13T07:24:12.934Z,3.72
2023-03-13T07:27:04.143Z,3.83
2023-03-13T07:29:42.342Z,3.92
2023-03-13T07:32:21.547Z,4.02
2023-03-13T07:34:59.613Z,4.06
2023-03-13T07:37:37.011Z,4.10
2023-03-13T07:40:16.671Z,4.09
2023-03-13T07:42:54.186Z,4.16
2023-03-13T07:45:24.517Z,4.28
2023-03-13T07:48:02.332Z,4.24
2023-03-13T07:50:39.356Z,4.25
2023-03-13T07:53:22.260Z,4.30
2023-03-13T07:56:09.704Z,4.41
2023-03-13T07:58:48.381Z,4.65
2023-03-13T08:01:30.671Z,4.87
2023-03-13T08:04:09.411Z,5.04
2023-03-13T08:06:46.715Z,5.02
2023-03-13T08:09:24.615Z,5.07
2023-03-13T08:12:02.165Z,5.09
2023-03-13T08:14:38.916Z,5.22
2023-03-13T08:17:15.641Z,5.31
2023-03-13T08:19:46.329Z,5.42
2023-03-13T08:22:22.935Z,5.47
2023-03-13T08:25:00.387Z,5.56
2023-03-13T08:27:37.625Z,5.64
2023-03-13T08:30:15.626Z,5.72
2023-03-13T08:32:53.548Z,5.84
2023-03-13T08:35:32.568Z,5.84
2023-03-13T08:38:10.626Z,5.76
2023-03-13T08:40:47.814Z,5.77
2023-03-13T08:43:24.818Z,5.92
2023-03-13T08:46:05.231Z,5.96
2023-03-13T08:48:41.502Z,5.93
2023-03-13T08:51:19.344Z,5.97
2023-03-13T08:53:59.719Z,5.99
2023-03-13T08:56:37.829Z,6.06
2023-03-13T08:59:16.434Z,6.06
2023-03-13T09:01:47.153Z,6.03
2023-03-13T09:04:24.987Z,6.13
2023-03-13T09:07:03.486Z,6.32
2023-03-13T09:09:41.296Z,6.51
2023-03-13T09:12:29.994Z,6.71
2023-03-13T09:15:07.041Z,7.00
2023-03-13T09:17:44.575Z,7.29
2023-03-13T09:20:22.783Z,7.55
2023-03-13T09:23:01.313Z,7.84
2023-03-13T09:25:43.423Z,8.00
2023-03-13T09:28:21.726Z,8.23
2023-03-13T09:31:06.951Z,8.38
2023-03-13T09:33:45.780Z,8.51
2023-03-13T09:36:25.863Z,8.96
2023-03-13T09:39:03.902Z,9.30
2023-03-13T09:42:06.761Z,9.55
2023-03-13T09:45:10.265Z,9.77
2023-03-13T09:48:00.770Z,9.85
2023-03-13T09:50:55.653Z,10.04
2023-03-13T09:53:49.819Z,10.10
2023-03-13T09:56:48.119Z,10.28
2023-03-13T09:59:48.641Z,10.29
2023-03-13T10:02:29.485Z,10.40
2023-03-13T10:05:31.192Z,10.51
2023-03-13T10:08:43.498Z,10.59
2023-03-13T10:11:40.901Z,10.68
2023-03-13T10:14:24.634Z,10.65
2023-03-13T10:17:20.714Z,10.67
2023-03-13T10:20:10.377Z,10.73
2023-03-13T10:22:52.815Z,10.80
2023-03-13T10:25:43.466Z,10.85
2023-03-13T10:28:23.352Z,10.92
2023-03-13T10:31:24.134Z,10.85
2023-03-13T10:34:16.449Z,10.85
2023-03-13T10:37:01.914Z,10.89
2023-03-13T10:39:40.375Z,10.90
2023-03-13T10:42:35.196Z,10.86
2023-03-13T10:45:09.519Z,10.83
2023-03-13T10:47:47.299Z,10.87
2023-03-13T10:50:27.947Z,10.91
2023-03-13T10:53:23.184Z,10.90
2023-03-13T10:56:29.721Z,10.88
2023-03-13T10:59:24.471Z,11.01
2023-03-13T11:02:05.215Z,10.98
2023-03-13T11:04:43.606Z,11.02
2023-03-13T11:07:30.071Z,11.16
2023-03-13T11:10:30.310Z,11.26
2023-03-13T11:13:08.658Z,11.20
2023-03-13T11:16:00.480Z,11.19
2023-03-13T11:19:19.346Z,11.25
2023-03-13T11:22:39.167Z,11.31
2023-03-13T11:25:36.462Z,11.28
2023-03-13T11:28:29.101Z,11.37
2023-03-13T11:31:16.409Z,11.51
2023-03-13T11:34:36.251Z,11.50
2023-03-13T11:37:15.728Z,11.64
2023-03-13T11:40:21.946Z,11.84
2023-03-13T11:43:51.793Z,12.06
2023-03-13T11:46:49.824Z,12.16
2023-03-13T11:50:05.258Z,12.35
2023-03-13T11:53:18.296Z,12.55
2023-03-13T11:56:09.788Z,12.61
2023-03-13T11:58:53.949Z,12.63
2023-03-13T12:02:01.179Z,12.62
2023-03-13T12:04:54.276Z,12.56
2023-03-13T12:07:45.260Z,12.57
2023-03-13T12:10:31.441Z,12.51
2023-03-13T12:13:42.584Z,12.43
2023-03-13T12:16:33.429Z,12.39
2023-03-13T12:19:15.123Z,12.42
2023-03-13T12:21:54.172Z,12.43
2023-03-13T12:24:45.147Z,12.42
2023-03-13T12:27:42.194Z,12.35
2023-03-13T12:30:52.021Z,12.26
2023-03-13T12:33:47.743Z,12.18
2023-03-13T12:37:17.736Z,12.18
2023-03-13T12:40:03.794Z,12.14
2023-03-13T12:43:06.540Z,12.11
2023-03-13T12:45:54.156Z,12.00
2023-03-13T12:49:16.892Z,11.93
2023-03-13T12:52:20.123Z,11.83
2023-03-13T12:55:29.217Z,11.77
2023-03-13T12:58:24.694Z,11.69
2023-03-13T13:01:08.120Z,11.64
2023-03-13T13:04:01.766Z,11.60
2023-03-13T13:07:08.051Z,11.53
2023-03-13T13:10:07.873Z,11.50
2023-03-13T13:12:47.176Z,11.45
2023-03-13T13:15:35.271Z,11.40
2023-03-13T13:18:34.837Z,11.35
2023-03-13T13:21:16.615Z,11.18
2023-03-13T13:23:56.587Z,11.09
2023-03-13T13:26:48.357Z,11.11
2023-03-13T13:29:26.319Z,11.13
2023-03-13T13:32:02.814Z,11.10
2023-03-13T13:35:01.978Z,11.08
2023-03-13T13:37:44.482Z,11.04
2023-03-13T13:40:33.683Z,11.01
2023-03-13T13:43:26.268Z,10.95
2023-03-13T13:46:46.883Z,10.92
2023-03-13T13:49:54.131Z,10.87
2023-03-13T13:52:37.761Z,10.80
2023-03-13T13:55:42.684Z,10.72
2023-03-13T13:58:27.094Z,10.69
2023-03-13T14:01:12.193Z,10.70
2023-03-13T14:03:52.453Z,10.63
2023-03-13T14:06:37.222Z,10.53
2023-03-13T14:09:49.734Z,10.51
2023-03-13T14:12:40.124Z,10.49
2023-03-13T14:15:24.034Z,10.47
2023-03-13T14:18:30.336Z,10.48
2023-03-13T14:21:14.619Z,10.50
2023-03-13T14:23:51.497Z,10.46
2023-03-13T14:26:34.716Z,10.43
2023-03-13T14:29:18.477Z,10.43
2023-03-13T14:31:58.173Z,10.46
2023-03-13T14:34:35.251Z,10.47
2023-03-13T14:37:51.425Z,10.50
2023-03-13T14:40:34.857Z,10.51
2023-03-13T14:43:33.062Z,10.48
2023-03-13T14:46:33.148Z,10.47
2023-03-13T14:49:26.554Z,10.51
2023-03-13T14:52:29.576Z,10.47
2023-03-13T14:55:36.828Z,10.49
2023-03-13T14:58:34.509Z,10.43
2023-03-13T15:01:31.883Z,10.43
2023-03-13T15:04:14.070Z,10.40
2023-03-13T15:07:04.160Z,10.37
2023-03-13T15:09:45.813Z,10.32
2023-03-13T15:12:28.588Z,10.30
2023-03-13T15:15:08.927Z,10.26
2023-03-13T15:17:47.258Z,10.25
2023-03-13T15:20:26.256Z,10.23
2023-03-13T15:23:03.608Z,10.19
2023-03-13T15:25:41.510Z,10.17
2023-03-13T15:28:28.674Z,10.16
2023-03-13T15:31:05.840Z,10.14
2023-03-13T15:33:43.840Z,10.14
2023-03-13T15:36:20.679Z,10.12
2023-03-13T15:38:58.385Z,10.10
2023-03-13T15:41:36.434Z,10.11
2023-03-13T15:44:14.682Z,10.11
2023-03-13T15:46:52.865Z,10.11
2023-03-13T15:49:31.394Z,10.09
2023-03-13T15:52:02.665Z,10.09
2023-03-13T15:54:39.064Z,10.12
2023-03-13T15:57:17.740Z,10.12
2023-03-13T15:59:55.535Z,10.10
2023-03-13T16:02:33.340Z,10.10
2023-03-13T16:05:12.164Z,10.06
2023-03-13T16:07:49.992Z,10.06
2023-03-13T16:10:28.153Z,10.07
2023-03-13T16:13:05.953Z,10.06
2023-03-13T16:15:43.122Z,10.05
2023-03-13T16:18:27.406Z,10.06
2023-03-13T16:21:04.752Z,10.03
2023-03-13T16:23:41.978Z,10.05
2023-03-13T16:26:24.894Z,10.04
2023-03-13T16:29:02.462Z,10.05
2023-03-13T16:31:40.545Z,10.03
2023-03-13T16:34:18.866Z,10.03
2023-03-13T16:36:55.873Z,10.00
2023-03-13T16:39:33.750Z,10.05
2023-03-13T16:42:13.242Z,10.05
2023-03-13T16:44:51.290Z,10.06
2023-03-13T16:47:36.913Z,10.05
2023-03-13T16:50:38.143Z,10.03
2023-03-13T16:53:16.183Z,10.03
2023-03-13T16:55:53.885Z,10.05
2023-03-13T16:58:31.157Z,10.07
2023-03-13T17:01:11.805Z,10.08
2023-03-13T17:03:46.251Z,10.09
2023-03-13T17:06:36.955Z,10.09
2023-03-13T17:09:18.763Z,10.09
2023-03-13T17:11:56.207Z,10.10
2023-03-13T17:14:33.698Z,10.14
2023-03-13T17:17:16.769Z,10.16
2023-03-13T17:19:55.942Z,10.19
2023-03-13T17:22:33.933Z,10.20
2023-03-13T17:25:14.442Z,10.22
2023-03-13T17:27:54.825Z,10.20
2023-03-13T17:30:35.313Z,10.20
2023-03-13T17:33:12.990Z,10.22
2023-03-13T17:35:50.840Z,10.25
2023-03-13T17:38:28.967Z,10.28
2023-03-13T17:41:00.254Z,10.32
2023-03-13T17:43:37.317Z,10.31
2023-03-13T17:46:36.393Z,10.33
2023-03-13T17:49:16.037Z,10.35
2023-03-13T17:51:52.975Z,10.38
2023-03-13T17:54:33.509Z,10.39
2023-03-13T17:57:22.253Z,10.39
2023-03-13T17:59:59.404Z,10.43
2023-03-13T18:02:37.491Z,10.43
2023-03-13T18:05:15.198Z,10.44
2023-03-13T18:07:53.750Z,10.48
2023-03-13T18:10:32.220Z,10.51
2023-03-13T18:13:10.415Z,10.53
2023-03-13T18:15:48.317Z,10.55
2023-03-13T18:18:26.122Z,10.55
2023-03-13T18:21:04.354Z,10.52
2023-03-13T18:23:41.661Z,10.50
2023-03-13T18:26:34.119Z,10.53
2023-03-13T18:29:27.438Z,10.56
2023-03-13T18:32:02.594Z,10.57
2023-03-13T18:34:41.979Z,10.59
2023-03-13T18:37:24.651Z,10.60
2023-03-13T18:40:02.265Z,10.60
2023-03-13T18:42:40.475Z,10.57
2023-03-13T18:45:21.869Z,10.57
2023-03-13T18:48:00.656Z,10.61
2023-03-13T18:50:40.659Z,10.63
2023-03-13T18:53:18.188Z,10.66
2023-03-13T18:55:59.461Z,10.67
2023-03-13T18:58:38.418Z,10.68
2023-03-13T19:01:19.635Z,10.68
2023-03-13T19:03:59.999Z,10.69
2023-03-13T19:06:36.508Z,10.68
2023-03-13T19:12:24.437Z,10.71
2023-03-13T19:15:02.750Z,10.73
2023-03-13T19:17:41.304Z,10.75
2023-03-13T19:20:24.098Z,10.73
2023-03-13T19:23:01.740Z,10.75
2023-03-13T19:25:39.836Z,10.73
2023-03-13T19:28:18.564Z,10.75
2023-03-13T19:30:57.594Z,10.76
2023-03-13T19:33:36.776Z,10.76
2023-03-13T19:36:18.390Z,10.81
2023-03-13T19:38:50.083Z,10.85
2023-03-13T19:41:24.457Z,10.85
2023-03-13T19:44:03.244Z,10.85
2023-03-13T19:46:44.271Z,10.84
2023-03-13T19:49:23.871Z,10.84
2023-03-13T19:52:01.782Z,10.82
2023-03-13T19:54:40.059Z,10.81
2023-03-13T19:57:18.880Z,10.80
2023-03-13T19:59:50.799Z,10.79
2023-03-13T20:02:29.566Z,10.82
2023-03-13T20:05:10.255Z,10.83
2023-03-13T20:07:49.166Z,10.84
2023-03-13T20:10:27.274Z,10.86
2023-03-13T20:13:05.363Z,10.85
2023-03-13T20:15:39.660Z,10.85
2023-03-13T20:18:16.266Z,10.84
2023-03-13T20:20:46.557Z,10.83
2023-03-13T20:23:25.103Z,10.81
2023-03-13T20:26:10.132Z,10.79
2023-03-13T20:28:48.504Z,10.80
2023-03-13T20:31:27.243Z,10.86
2023-03-13T20:34:05.410Z,10.89
2023-03-13T20:36:43.097Z,10.91
2023-03-13T20:39:20.477Z,10.91
2023-03-13T20:42:02.675Z,10.91
2023-03-13T20:44:41.439Z,10.90
2023-03-13T20:47:18.982Z,10.88
2023-03-13T20:49:56.269Z,10.86
2023-03-13T20:52:34.257Z,10.85
2023-03-13T20:55:11.969Z,10.84
2023-03-13T20:57:49.691Z,10.81
2023-03-13T21:00:27.932Z,10.80
2023-03-13T21:03:05.407Z,10.83
2023-03-13T21:05:50.591Z,10.87
2023-03-13T21:08:28.320Z,10.87
2023-03-13T21:11:12.471Z,10.87
2023-03-13T21:13:50.205Z,10.87
2023-03-13T21:16:27.789Z,10.85
2023-03-13T21:19:05.170Z,10.83
2023-03-13T21:21:42.688Z,10.79
2023-03-13T21:24:12.977Z,10.78
2023-03-13T21:26:47.262Z,10.77
2023-03-13T21:29:25.087Z,10.75
2023-03-13T21:32:02.507Z,10.73
2023-03-13T21:34:39.322Z,10.71
2023-03-13T21:37:18.117Z,10.69
2023-03-13T21:39:57.851Z,10.74
2023-03-13T21:42:36.659Z,10.77
2023-03-13T21:45:14.736Z,10.75
2023-03-13T21:47:51.613Z,10.75
2023-03-13T21:50:30.326Z,10.75
2023-03-13T21:53:08.079Z,10.75
2023-03-13T21:55:45.326Z,10.71
2023-03-13T21:58:23.265Z,10.68
2023-03-13T22:01:04.310Z,10.67
2023-03-13T22:03:35.151Z,10.67
2023-03-13T22:06:23.130Z,10.64
2023-03-13T22:09:01.631Z,10.63
2023-03-13T22:11:32.231Z,10.59
2023-03-13T22:14:08.722Z,10.62
2023-03-13T22:16:46.066Z,10.66
2023-03-13T22:19:23.258Z,10.65
2023-03-13T22:22:00.249Z,10.67
2023-03-13T22:24:37.476Z,10.66
2023-03-13T22:27:15.771Z,10.65
2023-03-13T22:29:53.135Z,10.65
2023-03-13T22:32:30.608Z,10.65
2023-03-13T22:35:08.975Z,10.64
2023-03-13T22:37:45.806Z,10.63
2023-03-13T22:40:23.849Z,10.62
2023-03-13T22:42:54.749Z,10.65
2023-03-13T22:45:32.789Z,10.66
2023-03-13T22:48:09.641Z,10.66
2023-03-13T22:50:46.872Z,10.65
2023-03-13T22:53:23.980Z,10.69
2023-03-13T22:56:01.434Z,10.71
2023-03-13T22:58:39.270Z,10.72
2023-03-13T23:01:17.791Z,10.73
2023-03-13T23:03:54.251Z,10.73
2023-03-13T23:06:30.984Z,10.74
2023-03-13T23:09:08.492Z,10.73
2023-03-13T23:11:45.722Z,10.72
2023-03-13T23:14:22.573Z,10.69
2023-03-13T23:16:53.343Z,10.66
2023-03-13T23:19:30.718Z,10.62
2023-03-13T23:22:08.222Z,10.61
2023-03-13T23:24:44.823Z,10.59
2023-03-13T23:27:19.112Z,10.55
2023-03-13T23:29:52.134Z,10.51
2023-03-13T23:32:23.653Z,10.50
2023-03-13T23:34:55.345Z,10.50
2023-03-13T23:37:28.560Z,10.48
2023-03-13T23:40:09.681Z,10.46
2023-03-13T23:42:50.724Z,10.44
2023-03-13T23:45:28.306Z,10.41
2023-03-13T23:48:05.668Z,10.39
2023-03-13T23:50:37.541Z,10.36
2023-03-13T23:53:16.539Z,10.34
2023-03-13T23:56:02.219Z,10.34
2023-03-13T23:58:40.101Z,10.32
